createdAt,value
2019-03-18T00:00:31.176Z,97907.78
2019-03-18T00:03:03.015Z,97905.20
2019-03-18T00:05:33.580Z,97916.02
2019-03-18T00:08:04.216Z,97916.36
2019-03-18T00:10:35.645Z,97917.02
2019-03-18T00:13:06.247Z,97905.98
2019-03-18T00:15:36.791Z,97910.67
2019-03-18T00:18:09.862Z,97909.08
2019-03-18T00:20:41.727Z,97920.51
2019-03-18T00:23:12.008Z,97907.61
2019-03-18T00:25:42.580Z,97912.66
2019-03-18T00:28:13.250Z,97911.15
2019-03-18T00:30:43.811Z,97920.34
2019-03-18T00:33:14.425Z,97918.91
2019-03-18T00:35:44.952Z,97919.52
2019-03-18T00:38:15.540Z,97912.58
2019-03-18T00:40:46.240Z,97921.16
2019-03-18T00:43:16.833Z,97915.98
2019-03-18T00:45:47.392Z,97929.87
2019-03-18T00:48:17.958Z,97931.33
2019-03-18T00:50:48.568Z,97934.99
2019-03-18T00:53:19.194Z,97934.99
2019-03-18T00:55:51.756Z,97932.50
2019-03-18T00:58:22.045Z,97936.24
2019-03-18T01:00:52.560Z,97929.73
2019-03-18T01:03:24.741Z,97930.08
2019-03-18T01:05:55.246Z,97934.95
2019-03-18T01:08:25.900Z,97931.03
2019-03-18T01:10:56.551Z,97931.33
2019-03-18T01:13:28.225Z,97929.86
2019-03-18T01:15:58.793Z,97933.22
2019-03-18T01:18:29.377Z,97933.22
2019-03-18T01:20:59.972Z,97931.88
2019-03-18T01:23:30.531Z,97933.78
2019-03-18T01:26:01.064Z,97929.59
2019-03-18T01:28:31.691Z,97940.55
2019-03-18T01:31:02.247Z,97938.94
2019-03-18T01:33:32.867Z,97937.38
2019-03-18T01:36:03.402Z,97939.44
2019-03-18T01:38:34.020Z,97943.97
2019-03-18T01:41:04.605Z,97943.63
2019-03-18T01:43:37.513Z,97939.45
2019-03-18T01:46:08.080Z,97945.66
2019-03-18T01:48:38.684Z,97944.02
2019-03-18T01:51:09.231Z,97944.67
2019-03-18T01:53:39.890Z,97944.72
2019-03-18T01:56:10.391Z,97949.76
2019-03-18T01:58:40.994Z,97954.97
2019-03-18T02:01:11.549Z,97952.74
2019-03-18T02:03:42.212Z,97953.70
2019-03-18T02:06:12.762Z,97947.91
2019-03-18T02:08:43.416Z,97945.51
2019-03-18T02:11:15.743Z,97948.75
2019-03-18T02:13:46.337Z,97950.30
2019-03-18T02:16:16.925Z,97951.42
2019-03-18T02:18:47.538Z,97950.81
2019-03-18T02:21:18.077Z,97940.48
2019-03-18T02:23:48.724Z,97939.48
2019-03-18T02:26:19.311Z,97940.47
2019-03-18T02:28:49.933Z,97938.39
2019-03-18T02:31:22.578Z,97941.85
2019-03-18T02:33:53.338Z,97937.58
2019-03-18T02:36:23.892Z,97936.75
2019-03-18T02:38:54.515Z,97940.67
2019-03-18T02:41:27.889Z,97939.39
2019-03-18T02:43:58.490Z,97945.89
2019-03-18T02:46:29.069Z,97951.59
2019-03-18T02:48:59.652Z,97948.56
2019-03-18T02:51:30.244Z,97942.73
2019-03-18T02:54:00.856Z,97947.23
2019-03-18T02:56:31.409Z,97957.75
2019-03-18T02:59:01.985Z,97953.43
2019-03-18T03:01:32.548Z,97964.05
2019-03-18T03:04:03.170Z,97969.40
2019-03-18T03:06:33.715Z,97968.44
2019-03-18T03:09:06.345Z,97973.11
2019-03-18T03:11:36.887Z,97970.55
2019-03-18T03:14:07.526Z,97969.91
2019-03-18T03:16:38.044Z,97962.48
2019-03-18T03:19:08.655Z,97960.89
2019-03-18T03:21:39.238Z,97956.23
2019-03-18T03:24:12.702Z,97962.59
2019-03-18T03:26:43.284Z,97962.77
2019-03-18T03:29:13.889Z,97968.12
2019-03-18T03:31:49.049Z,97967.34
2019-03-18T03:34:19.599Z,97967.81
2019-03-18T03:36:50.104Z,97969.11
2019-03-18T03:39:20.731Z,97968.63
2019-03-18T03:41:51.293Z,97973.33
2019-03-18T03:44:21.898Z,97976.39
2019-03-18T03:46:54.881Z,97984.84
2019-03-18T03:49:26.175Z,97989.34
2019-03-18T03:51:56.744Z,97995.67
2019-03-18T03:54:27.385Z,97999.39
2019-03-18T03:56:57.905Z,98006.20
2019-03-18T03:59:28.590Z,98002.49
2019-03-18T04:01:59.137Z,98007.20
2019-03-18T04:04:29.788Z,98010.30
2019-03-18T04:07:00.342Z,98014.55
2019-03-18T04:09:30.965Z,98030.88
2019-03-18T04:12:01.466Z,98030.75
2019-03-18T04:14:32.043Z,98042.57
2019-03-18T04:17:03.062Z,98037.88
2019-03-18T04:19:35.763Z,98044.86
2019-03-18T04:22:06.052Z,98042.09
2019-03-18T04:24:36.628Z,98047.62
2019-03-18T04:27:07.180Z,98042.78
2019-03-18T04:29:37.790Z,98052.32
2019-03-18T04:32:08.331Z,98050.37
2019-03-18T04:34:38.929Z,98057.67
2019-03-18T04:37:09.478Z,98054.12
2019-03-18T04:39:40.158Z,98051.67
2019-03-18T04:42:10.713Z,98063.63
2019-03-18T04:44:41.305Z,98067.52
2019-03-18T04:47:14.537Z,98075.94
2019-03-18T04:49:44.161Z,98081.94
2019-03-18T04:52:17.842Z,98080.98
2019-03-18T04:54:48.415Z,98080.64
2019-03-18T04:57:18.967Z,98084.23
2019-03-18T04:59:49.603Z,98083.44
2019-03-18T05:02:20.197Z,98093.29
2019-03-18T05:04:50.796Z,98090.56
2019-03-18T05:07:22.346Z,98091.65
2019-03-18T05:09:53.936Z,98098.00
2019-03-18T05:12:27.034Z,98096.91
2019-03-18T05:14:57.607Z,98093.02
2019-03-18T05:17:28.219Z,98103.99
2019-03-18T05:20:06.975Z,98103.22
2019-03-18T05:22:37.589Z,98109.52
2019-03-18T05:25:08.414Z,98116.77
2019-03-18T05:27:38.979Z,98119.88
2019-03-18T05:30:09.852Z,98111.16
2019-03-18T05:32:40.444Z,98125.71
2019-03-18T05:35:11.735Z,98129.77
2019-03-18T05:37:42.259Z,98133.17
2019-03-18T05:40:13.042Z,98133.65
2019-03-18T05:42:43.673Z,98138.02
2019-03-18T05:45:14.246Z,98135.25
2019-03-18T05:47:44.843Z,98135.77
2019-03-18T05:50:15.508Z,98138.14
2019-03-18T05:52:48.130Z,98137.59
2019-03-18T05:55:18.762Z,98140.82
2019-03-18T05:57:49.316Z,98141.16
2019-03-18T06:00:20.459Z,98144.11
2019-03-18T06:02:51.023Z,98144.58
2019-03-18T06:05:21.607Z,98144.45
2019-03-18T06:07:52.227Z,98157.22
2019-03-18T06:10:22.794Z,98156.41
2019-03-18T06:12:53.343Z,98159.17
2019-03-18T06:15:27.053Z,98167.12
2019-03-18T06:17:57.666Z,98166.16
2019-03-18T06:20:30.761Z,98171.09
2019-03-18T06:23:01.979Z,98170.75
2019-03-18T06:25:32.639Z,98183.22
2019-03-18T06:28:03.225Z,98182.27
2019-03-18T06:30:34.640Z,98183.73
2019-03-18T06:33:06.431Z,98179.24
2019-03-18T06:35:37.028Z,98182.83
2019-03-18T06:38:10.417Z,98188.97
2019-03-18T06:40:41.002Z,98192.51
2019-03-18T06:43:12.375Z,98186.37
2019-03-18T06:45:43.555Z,98194.11
2019-03-18T06:48:15.914Z,98202.22
2019-03-18T06:50:46.591Z,98198.94
2019-03-18T06:53:17.181Z,98206.45
2019-03-18T06:55:47.823Z,98198.20
2019-03-18T06:58:18.379Z,98193.49
2019-03-18T07:00:52.803Z,98196.35
2019-03-18T07:03:23.947Z,98205.11
2019-03-18T07:05:54.571Z,98209.61
2019-03-18T07:08:25.174Z,98213.88
2019-03-18T07:10:55.959Z,98220.02
2019-03-18T07:13:26.553Z,98214.53
2019-03-18T07:16:00.003Z,98221.48
2019-03-18T07:18:29.648Z,98216.17
2019-03-18T07:21:00.242Z,98216.87
2019-03-18T07:23:30.849Z,98215.91
2019-03-18T07:26:03.421Z,98225.16
2019-03-18T07:28:33.786Z,98228.57
2019-03-18T07:31:04.415Z,98233.75
2019-03-18T07:33:35.056Z,98241.83
2019-03-18T07:36:08.053Z,98228.91
2019-03-18T07:38:39.890Z,98234.70
2019-03-18T07:41:10.492Z,98244.98
2019-03-18T07:43:42.187Z,98251.94
2019-03-18T07:46:12.825Z,98253.94
2019-03-18T07:48:44.185Z,98265.89
2019-03-18T07:51:14.953Z,98270.00
2019-03-18T07:53:46.938Z,98269.88
2019-03-18T07:56:17.589Z,98271.98
2019-03-18T07:58:48.132Z,98285.08
2019-03-18T08:01:18.785Z,98290.09
2019-03-18T08:03:49.659Z,98289.45
2019-03-18T08:06:20.305Z,98292.42
2019-03-18T08:08:53.370Z,98292.26
2019-03-18T08:11:42.288Z,98289.06
2019-03-18T08:14:16.104Z,98288.80
2019-03-18T08:16:48.081Z,98294.37
2019-03-18T08:19:18.653Z,98306.19
2019-03-18T08:21:49.246Z,98309.59
2019-03-18T08:24:19.837Z,98308.69
2019-03-18T08:26:50.441Z,98316.08
2019-03-18T08:29:22.742Z,98316.28
2019-03-18T08:31:53.412Z,98314.83
2019-03-18T08:34:23.976Z,98313.88
2019-03-18T08:36:54.582Z,98310.16
2019-03-18T08:39:25.148Z,98311.36
2019-03-18T08:41:55.774Z,98308.77
2019-03-18T08:44:27.143Z,98316.77
2019-03-18T08:46:57.707Z,98321.99
2019-03-18T08:49:28.446Z,98320.97
2019-03-18T08:51:59.210Z,98329.56
2019-03-18T08:54:29.838Z,98327.27
2019-03-18T08:57:00.364Z,98337.99
2019-03-18T08:59:30.870Z,98337.69
2019-03-18T09:02:01.526Z,98341.14
2019-03-18T09:04:32.118Z,98345.03
2019-03-18T09:07:02.670Z,98349.11
2019-03-18T09:09:34.496Z,98351.57
2019-03-18T09:12:05.092Z,98351.78
2019-03-18T09:14:35.719Z,98349.26
2019-03-18T09:17:06.422Z,98357.05
2019-03-18T09:19:36.966Z,98358.55
2019-03-18T09:22:07.664Z,98364.09
2019-03-18T09:24:38.212Z,98363.00
2019-03-18T09:27:08.852Z,98364.03
2019-03-18T09:29:39.424Z,98368.30
2019-03-18T09:32:10.051Z,98367.86
2019-03-18T09:34:40.590Z,98376.67
2019-03-18T09:37:11.122Z,98373.97
2019-03-18T09:39:43.754Z,98376.39
2019-03-18T09:42:14.421Z,98379.36
2019-03-18T09:44:45.007Z,98387.50
2019-03-18T09:47:16.567Z,98385.09
2019-03-18T09:49:47.104Z,98390.61
2019-03-18T09:52:17.716Z,98391.59
2019-03-18T09:54:48.244Z,98401.09
2019-03-18T09:57:26.037Z,98398.80
2019-03-18T09:59:51.112Z,98402.05
2019-03-18T10:02:21.742Z,98405.63
2019-03-18T10:04:52.313Z,98406.59
2019-03-18T10:07:22.854Z,98408.09
2019-03-18T10:09:53.399Z,98403.09
2019-03-18T10:12:24.000Z,98407.63
2019-03-18T10:14:54.604Z,98407.98
2019-03-18T10:17:25.198Z,98405.23
2019-03-18T10:19:55.726Z,98411.42
2019-03-18T10:22:26.368Z,98413.06
2019-03-18T10:24:58.655Z,98411.13
2019-03-18T10:27:31.293Z,98414.23
2019-03-18T10:30:01.861Z,98416.23
2019-03-18T10:32:32.389Z,98410.07
2019-03-18T10:35:05.942Z,98415.29
2019-03-18T10:37:36.523Z,98415.48
2019-03-18T10:40:08.824Z,98421.69
2019-03-18T10:42:39.444Z,98424.16
2019-03-18T10:45:10.746Z,98421.25
2019-03-18T10:47:42.284Z,98423.67
2019-03-18T10:50:13.987Z,98422.02
2019-03-18T10:52:44.647Z,98422.65
2019-03-18T10:55:17.831Z,98418.92
2019-03-18T10:57:48.419Z,98426.06
2019-03-18T11:00:18.994Z,98426.91
2019-03-18T11:02:49.615Z,98417.48
2019-03-18T11:05:21.599Z,98425.13
2019-03-18T11:07:52.162Z,98424.84
2019-03-18T11:10:22.767Z,98427.13
2019-03-18T11:12:53.355Z,98423.10
2019-03-18T11:15:24.074Z,98421.14
2019-03-18T11:17:54.659Z,98422.45
2019-03-18T11:20:25.287Z,98424.59
2019-03-18T11:22:55.905Z,98415.98
2019-03-18T11:25:26.443Z,98427.89
2019-03-18T11:27:57.031Z,98423.16
2019-03-18T11:30:27.599Z,98422.67
2019-03-18T11:32:58.193Z,98423.33
2019-03-18T11:35:29.699Z,98426.91
2019-03-18T11:38:00.275Z,98430.48
2019-03-18T11:40:30.800Z,98420.08
2019-03-18T11:43:01.457Z,98418.45
2019-03-18T11:45:32.043Z,98414.55
2019-03-18T11:48:02.611Z,98413.88
2019-03-18T11:50:33.183Z,98405.75
2019-03-18T11:53:14.231Z,98412.25
2019-03-18T11:55:38.388Z,98406.41
2019-03-18T11:58:09.029Z,98410.80
2019-03-18T12:00:39.635Z,98418.63
2019-03-18T12:03:10.270Z,98432.45
2019-03-18T12:05:40.800Z,98432.11
2019-03-18T12:08:12.995Z,98457.49
2019-03-18T12:10:43.533Z,98459.44
2019-03-18T12:13:14.108Z,98458.11
2019-03-18T12:15:44.776Z,98450.94
2019-03-18T12:18:15.449Z,98440.03
2019-03-18T12:20:45.995Z,98430.27
2019-03-18T12:23:16.611Z,98433.05
2019-03-18T12:25:47.144Z,98423.30
2019-03-18T12:28:19.574Z,98425.76
2019-03-18T12:30:50.098Z,98406.22
2019-03-18T12:33:20.685Z,98413.08
2019-03-18T12:35:53.257Z,98413.72
2019-03-18T12:38:23.593Z,98418.45
2019-03-18T12:40:54.199Z,98411.47
2019-03-18T12:43:24.737Z,98417.64
2019-03-18T12:45:55.314Z,98417.49
2019-03-18T12:48:25.884Z,98418.45
2019-03-18T12:50:57.462Z,98414.55
2019-03-18T12:53:28.048Z,98404.95
2019-03-18T12:55:58.654Z,98410.64
2019-03-18T12:58:29.252Z,98408.87
2019-03-18T13:01:11.858Z,98408.03
2019-03-18T13:03:32.131Z,98403.48
2019-03-18T13:06:02.808Z,98410.97
2019-03-18T13:08:33.387Z,98402.67
2019-03-18T13:11:03.940Z,98403.48
2019-03-18T13:13:36.723Z,98409.00
2019-03-18T13:16:07.360Z,98402.34
2019-03-18T13:18:37.936Z,98399.63
2019-03-18T13:21:08.519Z,98402.20
2019-03-18T13:23:39.132Z,98400.41
2019-03-18T13:26:09.696Z,98402.02
2019-03-18T13:28:40.298Z,98397.95
2019-03-18T13:31:10.853Z,98400.67
2019-03-18T13:33:41.771Z,98396.12
2019-03-18T13:36:12.405Z,98393.31
2019-03-18T13:38:43.023Z,98386.91
2019-03-18T13:41:13.585Z,98383.61
2019-03-18T13:43:45.163Z,98377.70
2019-03-18T13:46:18.461Z,98381.86
2019-03-18T13:48:48.101Z,98379.23
2019-03-18T13:51:21.373Z,98385.27
2019-03-18T13:53:52.075Z,98385.16
2019-03-18T13:56:22.594Z,98388.90
2019-03-18T13:58:53.256Z,98390.20
2019-03-18T14:01:23.814Z,98396.73
2019-03-18T14:03:54.424Z,98416.00
2019-03-18T14:06:27.747Z,98424.18
2019-03-18T14:08:59.585Z,98434.48
2019-03-18T14:11:30.078Z,98429.13
2019-03-18T14:14:03.738Z,98436.34
2019-03-18T14:16:34.443Z,98447.78
2019-03-18T14:19:05.094Z,98447.30
2019-03-18T14:21:35.592Z,98457.09
2019-03-18T14:24:06.235Z,98456.94
2019-03-18T14:26:36.809Z,98463.77
2019-03-18T14:29:08.733Z,98474.52
2019-03-18T14:31:39.312Z,98486.35
2019-03-18T14:34:09.931Z,98505.32
2019-03-18T14:36:40.526Z,98512.77
2019-03-18T14:39:11.164Z,98504.50
2019-03-18T14:41:41.688Z,98502.45
2019-03-18T14:44:12.336Z,98489.34
2019-03-18T14:46:42.918Z,98483.89
2019-03-18T14:49:13.584Z,98465.52
2019-03-18T14:51:46.028Z,98460.19
2019-03-18T14:54:16.745Z,98463.83
2019-03-18T14:56:50.071Z,98466.45
2019-03-18T14:59:20.710Z,98462.41
2019-03-18T15:01:51.200Z,98460.95
2019-03-18T15:04:21.852Z,98465.30
2019-03-18T15:06:52.535Z,98469.84
2019-03-18T15:09:23.373Z,98480.39
2019-03-18T15:11:53.960Z,98480.92
2019-03-18T15:14:26.182Z,98475.13
2019-03-18T15:16:56.754Z,98468.36
2019-03-18T15:19:27.325Z,98466.66
2019-03-18T15:21:58.865Z,98469.16
2019-03-18T15:24:29.544Z,98479.13
2019-03-18T15:27:00.126Z,98478.33
2019-03-18T15:29:32.829Z,98475.58
2019-03-18T15:32:03.356Z,98472.56
2019-03-18T15:34:33.970Z,98472.73
2019-03-18T15:37:04.479Z,98472.24
2019-03-18T15:39:35.070Z,98476.95
2019-03-18T15:42:05.627Z,98474.31
2019-03-18T15:44:37.347Z,98468.27
2019-03-18T15:47:07.835Z,98475.07
2019-03-18T15:49:38.461Z,98484.83
2019-03-18T15:52:11.237Z,98483.56
2019-03-18T15:54:53.439Z,98483.58
2019-03-18T15:57:16.386Z,98484.21
2019-03-18T15:59:47.149Z,98479.66
2019-03-18T16:02:17.653Z,98483.28
2019-03-18T16:04:50.565Z,98477.44
2019-03-18T16:07:24.506Z,98477.09
2019-03-18T16:09:55.141Z,98487.20
2019-03-18T16:12:25.708Z,98479.04
2019-03-18T16:14:56.310Z,98487.49
2019-03-18T16:17:29.907Z,98488.83
2019-03-18T16:20:00.502Z,98480.67
2019-03-18T16:22:31.054Z,98481.65
2019-03-18T16:25:02.765Z,98479.22
2019-03-18T16:27:35.655Z,98486.56
2019-03-18T16:30:07.002Z,98487.38
2019-03-18T16:32:37.543Z,98487.71
2019-03-18T16:35:09.069Z,98494.38
2019-03-18T16:37:41.167Z,98492.09
2019-03-18T16:40:12.654Z,98498.62
2019-03-18T16:42:43.354Z,98493.09
2019-03-18T16:45:14.778Z,98497.00
2019-03-18T16:47:45.452Z,98500.89
2019-03-18T16:50:16.694Z,98508.39
2019-03-18T16:52:47.269Z,98507.41
2019-03-18T16:55:17.899Z,98510.44
2019-03-18T16:57:48.412Z,98515.66
2019-03-18T17:00:19.858Z,98514.17
2019-03-18T17:02:50.429Z,98520.31
2019-03-18T17:05:21.084Z,98519.02
2019-03-18T17:07:54.078Z,98523.51
2019-03-18T17:10:26.063Z,98529.34
2019-03-18T17:12:56.675Z,98533.89
2019-03-18T17:15:27.263Z,98543.94
2019-03-18T17:17:57.809Z,98541.97
2019-03-18T17:20:28.421Z,98548.78
2019-03-18T17:22:59.000Z,98548.11
2019-03-18T17:25:29.638Z,98553.59
2019-03-18T17:28:00.210Z,98553.23
2019-03-18T17:30:30.816Z,98550.73
2019-03-18T17:33:01.367Z,98558.65
2019-03-18T17:35:32.037Z,98564.95
2019-03-18T17:38:02.730Z,98573.53
2019-03-18T17:40:33.352Z,98576.72
2019-03-18T17:43:03.986Z,98576.06
2019-03-18T17:45:34.544Z,98580.61
2019-03-18T17:48:05.057Z,98580.71
2019-03-18T17:50:35.689Z,98585.73
2019-03-18T17:53:06.254Z,98589.25
2019-03-18T17:55:36.848Z,98599.91
2019-03-18T17:58:07.424Z,98606.23
2019-03-18T18:00:42.330Z,98612.85
2019-03-18T18:03:14.027Z,98619.95
2019-03-18T18:05:44.928Z,98625.16
2019-03-18T18:08:18.135Z,98632.13
2019-03-18T18:10:49.847Z,98629.87
2019-03-18T18:13:20.375Z,98624.59
2019-03-18T18:15:50.985Z,98627.50
2019-03-18T18:18:21.565Z,98626.06
2019-03-18T18:21:07.505Z,98632.91
2019-03-18T18:23:35.330Z,98634.98
2019-03-18T18:26:05.983Z,98638.49
2019-03-18T18:28:36.574Z,98642.87
2019-03-18T18:31:10.198Z,98640.75
2019-03-18T18:33:44.235Z,98653.98
2019-03-18T18:36:16.061Z,98656.11
2019-03-18T18:38:46.698Z,98665.67
2019-03-18T18:41:17.336Z,98672.56
2019-03-18T18:43:47.867Z,98669.79
2019-03-18T18:46:20.209Z,98675.64
2019-03-18T18:48:50.735Z,98679.36
2019-03-18T18:51:21.408Z,98684.98
2019-03-18T18:53:51.972Z,98688.30
2019-03-18T18:56:22.785Z,98691.83
2019-03-18T18:58:53.385Z,98695.80
2019-03-18T19:01:24.023Z,98701.05
2019-03-18T19:03:54.583Z,98703.70
2019-03-18T19:06:25.195Z,98711.09
2019-03-18T19:08:55.747Z,98707.17
2019-03-18T19:11:26.393Z,98709.78
2019-03-18T19:13:56.950Z,98723.88
2019-03-18T19:16:27.612Z,98724.64
2019-03-18T19:18:58.202Z,98725.50
2019-03-18T19:21:28.891Z,98721.35
2019-03-18T19:23:59.411Z,98728.16
2019-03-18T19:26:30.175Z,98730.69
2019-03-18T19:29:00.760Z,98732.17
2019-03-18T19:31:34.121Z,98736.09
2019-03-18T19:34:13.713Z,98742.27
2019-03-18T19:36:44.393Z,98748.59
2019-03-18T19:39:16.634Z,98739.86
2019-03-18T19:41:47.252Z,98733.45
2019-03-18T19:44:17.908Z,98749.96
2019-03-18T19:46:49.820Z,98756.20
2019-03-18T19:49:20.409Z,98755.77
2019-03-18T19:51:51.008Z,98760.13
2019-03-18T19:54:21.572Z,98757.34
2019-03-18T19:56:52.193Z,98760.13
2019-03-18T19:59:24.249Z,98761.30
2019-03-18T20:01:54.881Z,98761.77
2019-03-18T20:04:27.043Z,98765.00
2019-03-18T20:06:57.665Z,98773.25
2019-03-18T20:09:29.743Z,98775.97
2019-03-18T20:12:00.408Z,98776.81
2019-03-18T20:14:32.714Z,98778.77
2019-03-18T20:17:03.445Z,98777.89
2019-03-18T20:19:34.024Z,98786.03
2019-03-18T20:22:04.641Z,98786.28
2019-03-18T20:24:35.254Z,98791.27
2019-03-18T20:27:05.893Z,98794.06
2019-03-18T20:29:36.481Z,98793.79
2019-03-18T20:32:07.049Z,98805.94
2019-03-18T20:34:37.620Z,98802.27
2019-03-18T20:37:11.425Z,98809.58
2019-03-18T20:39:41.987Z,98804.52
2019-03-18T20:42:12.581Z,98805.81
2019-03-18T20:44:44.224Z,98810.33
2019-03-18T20:47:14.841Z,98810.09
2019-03-18T20:49:45.430Z,98815.09
2019-03-18T20:52:17.047Z,98817.33
2019-03-18T20:54:47.800Z,98818.03
2019-03-18T20:57:20.280Z,98819.65
2019-03-18T20:59:52.201Z,98824.16
2019-03-18T21:02:22.844Z,98828.45
2019-03-18T21:04:53.393Z,98830.13
2019-03-18T21:07:24.023Z,98829.25
2019-03-18T21:09:57.618Z,98826.79
2019-03-18T21:12:28.229Z,98829.38
2019-03-18T21:14:58.837Z,98837.86
2019-03-18T21:17:29.385Z,98833.45
2019-03-18T21:19:59.945Z,98832.21
2019-03-18T21:22:31.782Z,98834.18
2019-03-18T21:25:02.370Z,98829.83
2019-03-18T21:27:32.982Z,98833.74
2019-03-18T21:30:03.588Z,98836.19
2019-03-18T21:32:34.157Z,98833.80
2019-03-18T21:35:04.774Z,98845.67
2019-03-18T21:37:35.429Z,98859.59
2019-03-18T21:40:06.480Z,98857.69
2019-03-18T21:42:38.117Z,98853.41
2019-03-18T21:45:11.120Z,98855.45
2019-03-18T21:47:41.828Z,98860.75
2019-03-18T21:50:12.956Z,98868.41
2019-03-18T21:52:47.052Z,98868.41
2019-03-18T21:55:17.760Z,98872.47
2019-03-18T21:57:48.424Z,98884.66
2019-03-18T22:00:20.738Z,98875.81
2019-03-18T22:02:52.100Z,98880.94
2019-03-18T22:05:22.759Z,98882.65
2019-03-18T22:07:53.406Z,98883.09
2019-03-18T22:10:24.035Z,98887.19
2019-03-18T22:12:55.993Z,98883.77
2019-03-18T22:15:26.580Z,98884.48
2019-03-18T22:17:57.183Z,98885.83
2019-03-18T22:20:27.811Z,98883.59
2019-03-18T22:22:58.461Z,98885.83
2019-03-18T22:25:32.018Z,98879.62
2019-03-18T22:28:02.729Z,98876.73
2019-03-18T22:30:33.920Z,98879.20
2019-03-18T22:33:05.060Z,98879.45
2019-03-18T22:35:38.540Z,98882.41
2019-03-18T22:38:09.199Z,98887.27
2019-03-18T22:40:40.278Z,98884.02
2019-03-18T22:43:12.333Z,98887.61
2019-03-18T22:45:43.759Z,98892.45
2019-03-18T22:48:16.423Z,98897.14
2019-03-18T22:50:46.713Z,98892.31
2019-03-18T22:53:17.317Z,98890.76
2019-03-18T22:55:47.913Z,98889.98
2019-03-18T22:58:19.498Z,98890.19
2019-03-18T23:00:55.661Z,98897.12
2019-03-18T23:03:26.251Z,98894.73
2019-03-18T23:05:56.824Z,98898.63
2019-03-18T23:08:28.175Z,98895.47
2019-03-18T23:10:58.769Z,98890.91
2019-03-18T23:13:29.335Z,98890.50
2019-03-18T23:15:59.961Z,98894.13
2019-03-18T23:18:34.484Z,98896.50
2019-03-18T23:21:05.131Z,98901.90
2019-03-18T23:23:35.703Z,98901.99
2019-03-18T23:26:09.899Z,98896.91
2019-03-18T23:28:40.456Z,98897.70
2019-03-18T23:31:11.064Z,98897.23
2019-03-18T23:33:43.797Z,98903.00
2019-03-18T23:36:14.391Z,98901.59
2019-03-18T23:38:46.362Z,98893.58
2019-03-18T23:41:16.959Z,98890.63
2019-03-18T23:43:48.214Z,98895.94
2019-03-18T23:46:18.870Z,98901.33
2019-03-18T23:48:50.073Z,98900.04
2019-03-18T23:51:20.664Z,98900.05
2019-03-18T23:53:51.233Z,98907.50
2019-03-18T23:56:21.907Z,98910.91
2019-03-18T23:58:53.098Z,98906.84
